Time;durP1;ratioP1;P1;durP2;ratioP2;P2;SDS_P1;SDS_P2;PMS_P1;PMS_P2;Temp;Humidity;BMP_temperature;BMP_pressure;BME280_temperature;BME280_humidity;BME280_pressure;Samples;Min_cycle;Max_cycle;Signal;HPM_P1;HPM_P2
2022/02/16 07:02:14;;;;;;;17.30;3.05;;;;;;;;;;5058078;23;20096;-88
2022/02/16 07:04:41;;;;;;;21.45;3.72;;;;;;;;;;4917559;29;20060;-87
2022/02/16 07:07:09;;;;;;;18.98;3.00;;;;;;;;;;4913165;29;20482;-88
2022/02/16 07:09:36;;;;;;;26.90;2.97;;;;;;;;;;4913985;29;20059;-87
2022/02/16 07:12:03;;;;;;;24.80;3.50;;;;;;;;;;4912534;29;20099;-89
2022/02/16 07:14:30;;;;;;;29.45;3.30;;;;;;;;;;4910075;29;20120;-88
2022/02/16 07:16:58;;;;;;;22.45;3.15;;;;;;;;;;4915253;29;20052;-87
2022/02/16 07:19:26;;;;;;;16.30;2.47;;;;;;;;;;4912245;29;20055;-90
2022/02/16 07:21:57;;;;;;;16.13;2.42;;;;;;;;;;4913161;29;20052;-89
2022/02/16 07:24:24;;;;;;;17.48;2.78;;;;;;;;;;4916010;29;20163;-88
2022/02/16 07:26:51;;;;;;;15.68;2.40;;;;;;;;;;4918681;29;20052;-88
2022/02/16 07:29:18;;;;;;;11.95;2.47;;;;;;;;;;4918861;29;20119;-88
2022/02/16 07:31:45;;;;;;;15.30;2.47;;;;;;;;;;4917066;29;20051;-87
2022/02/16 07:34:12;;;;;;;19.25;2.65;;;;;;;;;;4915990;29;20048;-88
2022/02/16 07:36:38;;;;;;;14.80;2.33;;;;;;;;;;4916026;29;20059;-87
2022/02/16 07:39:05;;;;;;;15.65;2.13;;;;;;;;;;4908895;29;20060;-90
2022/02/16 07:41:32;;;;;;;16.25;2.58;;;;;;;;;;4902321;29;20044;-89
2022/02/16 07:43:58;;;;;;;19.52;1.88;;;;;;;;;;4914324;29;20071;-87
2022/02/16 07:46:28;;;;;;;19.60;2.35;;;;;;;;;;4911947;29;20275;-86
2022/02/16 07:48:54;;;;;;;16.83;2.47;;;;;;;;;;4911936;29;20055;-88
2022/02/16 07:51:21;;;;;;;17.23;2.10;;;;;;;;;;4913091;29;20048;-86
2022/02/16 07:53:48;;;;;;;11.38;2.13;;;;;;;;;;4919241;29;20120;-88
2022/02/16 07:56:15;;;;;;;14.05;1.83;;;;;;;;;;4914378;29;20108;-87
2022/02/16 07:58:42;;;;;;;17.08;2.92;;;;;;;;;;4915880;29;20100;-87
2022/02/16 08:01:09;;;;;;;32.28;3.50;;;;;;;;;;4923090;29;20055;-86
2022/02/16 08:03:36;;;;;;;20.58;2.78;;;;;;;;;;4935625;29;20051;-88
2022/02/16 08:06:03;;;;;;;21.48;3.67;;;;;;;;;;4935501;29;20110;-88
2022/02/16 08:08:31;;;;;;;24.98;3.53;;;;;;;;;;4933181;29;20055;-87
2022/02/16 08:11:00;;;;;;;25.35;4.05;;;;;;;;;;4918133;29;20055;-89
2022/02/16 08:13:30;;;;;;;25.88;3.50;;;;;;;;;;4932970;29;20127;-88
2022/02/16 08:15:56;;;;;;;33.10;3.70;;;;;;;;;;4917581;29;20056;-88
2022/02/16 08:18:24;;;;;;;26.65;3.75;;;;;;;;;;4933889;29;20051;-88
2022/02/16 08:20:50;;;;;;;23.08;2.97;;;;;;;;;;4932905;29;20055;-88
2022/02/16 08:23:17;;;;;;;18.90;3.00;;;;;;;;;;4933635;29;20052;-88
2022/02/16 08:25:44;;;;;;;19.45;2.72;;;;;;;;;;4936345;29;20115;-89
2022/02/16 08:28:11;;;;;;;21.88;3.30;;;;;;;;;;4931932;29;20047;-88
2022/02/16 08:30:38;;;;;;;29.50;2.67;;;;;;;;;;4932495;29;20110;-88
2022/02/16 08:33:04;;;;;;;24.45;3.13;;;;;;;;;;4918645;29;20048;-89
2022/02/16 08:35:33;;;;;;;34.00;3.88;;;;;;;;;;4932319;29;20135;-90
2022/02/16 08:38:00;;;;;;;45.15;5.25;;;;;;;;;;4916627;29;20048;-88
2022/02/16 08:40:27;;;;;;;37.20;3.70;;;;;;;;;;4918402;29;20114;-88
2022/02/16 08:43:14;;;;;;;48.85;5.22;;;;;;;;;;4932970;29;20130;-89
2022/02/16 08:45:42;;;;;;;60.10;5.80;;;;;;;;;;4931655;29;20094;-89
2022/02/16 08:48:09;;;;;;;54.70;6.53;;;;;;;;;;4931296;29;20048;-88
2022/02/16 08:50:38;;;;;;;47.28;5.28;;;;;;;;;;4918815;29;20398;-90
2022/02/16 08:53:05;;;;;;;39.15;4.65;;;;;;;;;;4918746;29;20056;-88
2022/02/16 08:55:32;;;;;;;23.02;3.95;;;;;;;;;;4933164;29;20131;-90
2022/02/16 08:57:59;;;;;;;35.15;3.88;;;;;;;;;;4930611;29;20163;-89
2022/02/16 09:00:25;;;;;;;23.02;3.20;;;;;;;;;;4914520;29;20051;-87
2022/02/16 09:02:52;;;;;;;32.38;3.65;;;;;;;;;;4912018;29;20110;-90
2022/02/16 09:05:19;;;;;;;20.80;3.20;;;;;;;;;;4914322;29;23324;-90
2022/02/16 09:07:46;;;;;;;31.77;3.85;;;;;;;;;;4917144;29;20111;-89
2022/02/16 09:10:13;;;;;;;46.30;5.30;;;;;;;;;;4914358;29;20096;-89
2022/02/16 09:12:39;;;;;;;54.65;5.93;;;;;;;;;;4908925;29;20059;-89
2022/02/16 09:15:06;;;;;;;50.05;5.30;;;;;;;;;;4915923;29;20531;-89
2022/02/16 09:17:34;;;;;;;60.00;6.05;;;;;;;;;;4895735;29;20509;-88
2022/02/16 09:20:03;;;;;;;56.85;6.00;;;;;;;;;;4914356;29;20152;-89
2022/02/16 09:22:30;;;;;;;50.10;6.05;;;;;;;;;;4920337;29;20071;-88
2022/02/16 09:24:57;;;;;;;62.17;6.97;;;;;;;;;;4903400;29;20051;-88
2022/02/16 09:27:24;;;;;;;72.70;8.20;;;;;;;;;;4913426;29;20111;-88
2022/02/16 09:29:51;;;;;;;81.78;8.73;;;;;;;;;;4912693;29;20075;-91
2022/02/16 09:32:19;;;;;;;79.47;7.88;;;;;;;;;;4892661;29;20072;-86
2022/02/16 09:34:47;;;;;;;61.95;6.85;;;;;;;;;;4911718;29;20056;-88
2022/02/16 09:37:14;;;;;;;62.40;6.18;;;;;;;;;;4915503;29;20394;-92
2022/02/16 09:39:41;;;;;;;55.45;5.72;;;;;;;;;;4897761;29;20655;-87
2022/02/16 09:42:08;;;;;;;56.60;5.75;;;;;;;;;;4912573;29;20052;-91
2022/02/16 09:44:45;;;;;;;46.10;5.32;;;;;;;;;;4891013;29;20044;-88
2022/02/16 09:47:14;;;;;;;47.10;5.15;;;;;;;;;;4893165;29;20607;-89
2022/02/16 09:49:41;;;;;;;57.17;6.72;;;;;;;;;;4916667;29;20067;-88
2022/02/16 09:52:11;;;;;;;53.25;6.30;;;;;;;;;;4894631;29;20044;-87
2022/02/16 09:54:39;;;;;;;77.50;8.05;;;;;;;;;;4908082;29;20052;-87
2022/02/16 09:57:06;;;;;;;77.50;8.02;;;;;;;;;;4913445;29;20046;-88
2022/02/16 09:59:34;;;;;;;70.18;7.70;;;;;;;;;;4894673;29;20056;-89
2022/02/16 10:02:07;;;;;;;138.32;26.48;;;;;;;;;;4926303;29;20073;-89
2022/02/16 10:04:36;;;;;;;92.50;9.85;;;;;;;;;;4929437;29;20094;-90
2022/02/16 10:07:26;;;;;;;65.00;9.63;;;;;;;;;;4931084;29;20528;-90
2022/02/16 10:09:54;;;;;;;59.85;7.82;;;;;;;;;;4914265;29;20052;-88
2022/02/16 10:12:31;;;;;;;49.85;6.25;;;;;;;;;;4931136;29;20107;-88
2022/02/16 10:14:58;;;;;;;52.25;6.68;;;;;;;;;;4915762;29;20063;-89
2022/02/16 10:17:29;;;;;;;62.15;6.68;;;;;;;;;;4910573;29;20059;-88
2022/02/16 10:19:58;;;;;;;53.55;6.82;;;;;;;;;;4903333;29;20513;-89
2022/02/16 10:22:37;;;;;;;57.03;6.53;;;;;;;;;;4924239;29;20079;-90
2022/02/16 10:25:10;;;;;;;49.75;5.57;;;;;;;;;;4926932;29;20044;-91
2022/02/16 10:27:39;;;;;;;46.35;5.53;;;;;;;;;;4925249;29;20107;-90
2022/02/16 10:30:14;;;;;;;63.08;5.93;;;;;;;;;;4925477;29;20596;-90
2022/02/16 10:32:41;;;;;;;54.50;11.63;;;;;;;;;;4926735;29;20056;-89
2022/02/16 10:35:08;;;;;;;60.22;7.03;;;;;;;;;;4906580;29;20401;-91
2022/02/16 10:37:36;;;;;;;59.00;7.55;;;;;;;;;;4912230;29;20548;-91
2022/02/16 10:40:15;;;;;;;59.07;7.80;;;;;;;;;;4923261;29;20047;-89
2022/02/16 10:43:00;;;;;;;47.38;7.28;;;;;;;;;;4926058;29;20048;-91
2022/02/16 10:45:29;;;;;;;55.65;6.80;;;;;;;;;;4920322;29;20098;-88
2022/02/16 10:48:05;;;;;;;46.20;6.65;;;;;;;;;;4909948;29;20500;-90
2022/02/16 10:50:40;;;;;;;50.60;7.50;;;;;;;;;;4922905;29;20058;-92
2022/02/16 10:53:08;;;;;;;62.05;7.47;;;;;;;;;;4921816;29;20048;-90
2022/02/16 10:55:44;;;;;;;67.80;8.57;;;;;;;;;;4914634;29;20069;-89
2022/02/16 10:58:18;;;;;;;;;;;;;;;;;;4912636;29;20048;-90
2022/02/16 11:00:47;;;;;;;57.63;7.40;;;;;;;;;;4930210;29;19930;-91
2022/02/16 11:03:39;;;;;;;62.72;8.98;;;;;;;;;;4929530;29;20054;-91
2022/02/16 11:06:07;;;;;;;72.53;8.93;;;;;;;;;;4917801;29;20059;-92
2022/02/16 11:08:38;;;;;;;73.82;9.93;;;;;;;;;;4897331;29;20048;-90
2022/02/16 11:11:25;;;;;;;81.18;9.25;;;;;;;;;;4912756;29;20087;-89
2022/02/16 11:14:03;;;;;;;73.68;10.23;;;;;;;;;;4926978;29;20413;-88
2022/02/16 11:16:30;;;;;;;78.30;10.10;;;;;;;;;;4912634;29;20075;-88
2022/02/16 11:19:00;;;;;;;66.00;9.90;;;;;;;;;;4905085;29;20059;-87
2022/02/16 11:21:31;;;;;;;70.78;9.10;;;;;;;;;;4893186;29;20055;-90
2022/02/16 11:23:59;;;;;;;74.60;9.98;;;;;;;;;;4916163;29;20508;-88
2022/02/16 11:26:48;;;;;;;;;;;;;;;;;;4902004;29;20052;-87
2022/02/16 11:29:31;;;;;;;89.47;10.30;;;;;;;;;;4894551;29;19970;-89
2022/02/16 11:32:26;;;;;;;97.03;10.95;;;;;;;;;;4886321;29;20467;-87
2022/02/16 11:35:19;;;;;;;108.90;11.18;;;;;;;;;;4899537;29;20062;-87
2022/02/16 11:37:50;;;;;;;117.18;12.70;;;;;;;;;;4896208;29;20107;-88
2022/02/16 11:40:32;;;;;;;125.10;13.70;;;;;;;;;;4920089;29;20052;-91
2022/02/16 11:43:01;;;;;;;127.78;14.18;;;;;;;;;;4908857;29;20056;-89
2022/02/16 11:45:50;;;;;;;132.38;14.18;;;;;;;;;;4890243;29;20054;-87
2022/02/16 11:48:40;;;;;;;127.05;13.30;;;;;;;;;;4912732;29;20143;-89
2022/02/16 11:51:22;;;;;;;157.68;15.70;;;;;;;;;;4917720;29;20131;-87
2022/02/16 11:53:52;;;;;;;163.10;18.35;;;;;;;;;;4920869;29;20044;-90
2022/02/16 11:56:22;;;;;;;170.88;18.35;;;;;;;;;;4928048;29;20476;-93
2022/02/16 11:59:13;;;;;;;169.48;19.17;;;;;;;;;;4925415;29;20048;-89
2022/02/16 12:02:05;;;;;;;156.45;17.92;;;;;;;;;;4928075;29;20047;-90
2022/02/16 12:04:45;;;;;;;186.80;17.95;;;;;;;;;;4932666;29;20185;-87
2022/02/16 12:07:29;;;;;;;179.18;19.95;;;;;;;;;;4929302;29;20055;-89
2022/02/16 12:10:19;;;;;;;187.43;18.23;;;;;;;;;;4934230;29;20051;-89
2022/02/16 12:12:48;;;;;;;192.40;19.73;;;;;;;;;;4924815;29;20059;-88
2022/02/16 12:15:35;;;;;;;178.80;18.58;;;;;;;;;;4914628;29;20052;-89
2022/02/16 12:18:03;;;;;;;197.68;19.58;;;;;;;;;;4923220;29;20058;-90
2022/02/16 12:20:31;;;;;;;;;;;;;;;;;;4925104;29;20052;-90
2022/02/16 12:23:03;;;;;;;182.40;18.20;;;;;;;;;;4928993;29;19983;-89
2022/02/16 12:25:31;;;;;;;188.15;18.73;;;;;;;;;;4924358;29;20540;-90
2022/02/16 12:28:05;;;;;;;182.05;18.27;;;;;;;;;;4912933;29;20052;-91
2022/02/16 12:30:39;;;;;;;167.43;15.77;;;;;;;;;;4911813;29;20056;-90
2022/02/16 12:33:26;;;;;;;178.25;17.52;;;;;;;;;;4924368;29;20048;-88
2022/02/16 12:35:53;;;;;;;183.57;19.83;;;;;;;;;;4909514;29;20056;-90
2022/02/16 12:38:29;;;;;;;177.05;18.05;;;;;;;;;;4924511;29;20513;-89
2022/02/16 12:41:00;;;;;;;165.00;18.17;;;;;;;;;;4926833;29;20135;-88
2022/02/16 12:43:27;;;;;;;157.40;17.50;;;;;;;;;;4927366;29;20051;-89
2022/02/16 12:45:54;;;;;;;177.50;17.90;;;;;;;;;;4923452;29;20051;-90
2022/02/16 12:48:22;;;;;;;186.98;20.13;;;;;;;;;;4925559;29;20127;-89
2022/02/16 12:50:57;;;;;;;150.95;17.73;;;;;;;;;;4929175;29;20044;-88
2022/02/16 12:53:35;;;;;;;167.77;16.88;;;;;;;;;;4924206;29;20052;-89
2022/02/16 12:56:09;;;;;;;188.00;18.83;;;;;;;;;;4927975;29;20058;-89
2022/02/16 12:58:39;;;;;;;184.95;17.38;;;;;;;;;;4920089;29;20157;-89
2022/02/16 13:01:06;;;;;;;176.55;18.65;;;;;;;;;;4929284;29;20056;-90
2022/02/16 13:03:33;;;;;;;179.15;19.23;;;;;;;;;;4918184;29;20103;-90
2022/02/16 13:06:03;;;;;;;183.73;19.48;;;;;;;;;;4919146;29;20059;-89
2022/02/16 13:08:30;;;;;;;150.73;16.25;;;;;;;;;;4929637;29;20501;-88
2022/02/16 13:11:00;;;;;;;178.15;16.42;;;;;;;;;;4922919;29;20504;-87
2022/02/16 13:13:29;;;;;;;165.68;16.73;;;;;;;;;;4927014;29;20461;-89
2022/02/16 13:15:58;;;;;;;162.93;17.13;;;;;;;;;;4909604;29;20052;-90
2022/02/16 13:18:43;;;;;;;151.95;16.60;;;;;;;;;;4911579;29;20047;-89
2022/02/16 13:21:18;;;;;;;125.22;15.52;;;;;;;;;;4910965;29;20062;-88
2022/02/16 13:23:45;;;;;;;143.38;15.43;;;;;;;;;;4922598;29;20059;-89
2022/02/16 13:26:14;;;;;;;143.95;14.60;;;;;;;;;;4910475;29;20047;-88
2022/02/16 13:28:42;;;;;;;136.07;12.48;;;;;;;;;;4925906;29;20052;-88
2022/02/16 13:31:11;;;;;;;137.13;14.07;;;;;;;;;;4922387;29;20119;-86
2022/02/16 13:33:38;;;;;;;130.65;12.48;;;;;;;;;;4919711;29;20054;-91
2022/02/16 13:36:16;;;;;;;127.47;12.90;;;;;;;;;;4905943;29;20099;-90
2022/02/16 13:38:46;;;;;;;132.95;15.75;;;;;;;;;;4901123;29;20062;-89
2022/02/16 13:41:16;;;;;;;145.73;16.02;;;;;;;;;;4923458;29;20131;-88
2022/02/16 13:44:00;;;;;;;153.88;18.23;;;;;;;;;;4922202;29;20501;-87
2022/02/16 13:46:42;;;;;;;136.05;14.18;;;;;;;;;;4921789;29;20528;-88
2022/02/16 13:49:12;;;;;;;122.18;13.77;;;;;;;;;;4921444;29;20075;-88
2022/02/16 13:52:00;;;;;;;116.72;15.32;;;;;;;;;;4920919;29;20516;-88
2022/02/16 13:54:31;;;;;;;132.48;16.95;;;;;;;;;;4922172;29;20055;-88
2022/02/16 13:57:11;;;;;;;123.28;14.70;;;;;;;;;;4917867;29;20052;-88
2022/02/16 14:00:07;;;;;;;109.32;15.82;;;;;;;;;;4923613;29;20055;-89
2022/02/16 14:02:35;;;;;;;111.20;13.32;;;;;;;;;;4905957;29;20051;-87
2022/02/16 14:05:05;;;;;;;118.07;12.77;;;;;;;;;;4918843;29;20672;-87
2022/02/16 14:07:55;;;;;;;122.45;14.45;;;;;;;;;;4906516;29;20146;-83
2022/02/16 14:10:22;;;;;;;111.82;14.50;;;;;;;;;;4905854;29;20107;-85
2022/02/16 14:12:49;;;;;;;118.20;14.40;;;;;;;;;;4921578;29;20047;-84
2022/02/16 14:15:16;;;;;;;116.13;14.07;;;;;;;;;;4923592;29;20047;-85
2022/02/16 14:17:46;;;;;;;113.13;13.70;;;;;;;;;;4919475;29;20099;-85
2022/02/16 14:20:13;;;;;;;125.65;14.90;;;;;;;;;;4920203;29;20052;-85
2022/02/16 14:22:40;;;;;;;108.63;12.95;;;;;;;;;;4921932;29;20040;-85
2022/02/16 14:25:08;;;;;;;103.25;13.35;;;;;;;;;;4923217;29;20058;-86
2022/02/16 14:27:38;;;;;;;116.90;13.05;;;;;;;;;;4924435;29;20054;-88
2022/02/16 14:30:09;;;;;;;91.00;11.00;;;;;;;;;;4924510;29;20146;-87
2022/02/16 14:32:36;;;;;;;84.03;10.15;;;;;;;;;;4922321;29;20524;-87
2022/02/16 14:35:07;;;;;;;102.60;11.57;;;;;;;;;;4913928;29;20044;-89
2022/02/16 14:37:37;;;;;;;80.10;9.95;;;;;;;;;;4922466;29;20409;-88
2022/02/16 14:40:06;;;;;;;82.43;11.63;;;;;;;;;;4920110;29;20055;-90
2022/02/16 14:42:34;;;;;;;;;;;;;;;;;;4917562;29;20055;-87
2022/02/16 14:45:08;;;;;;;98.00;12.75;;;;;;;;;;4907954;29;20458;-88
2022/02/16 14:47:39;;;;;;;83.93;9.85;;;;;;;;;;4917896;29;20559;-89
2022/02/16 14:50:07;;;;;;;78.00;9.73;;;;;;;;;;4919052;29;20052;-89
2022/02/16 14:52:36;;;;;;;84.18;10.35;;;;;;;;;;4922918;29;20055;-87
2022/02/16 14:55:04;;;;;;;94.15;10.77;;;;;;;;;;4912907;29;20087;-87
2022/02/16 14:57:33;;;;;;;75.57;10.00;;;;;;;;;;4924851;29;20067;-88
2022/02/16 15:00:00;;;;;;;68.65;8.90;;;;;;;;;;4922562;29;20505;-87
2022/02/16 15:02:27;;;;;;;90.78;9.75;;;;;;;;;;4926550;29;20058;-87
2022/02/16 15:04:53;;;;;;;87.30;9.88;;;;;;;;;;4924887;29;20048;-89
2022/02/16 15:07:20;;;;;;;82.00;9.93;;;;;;;;;;4911584;29;20048;-88
2022/02/16 15:09:47;;;;;;;91.20;10.60;;;;;;;;;;4911051;29;20051;-90
2022/02/16 15:12:13;;;;;;;93.25;10.27;;;;;;;;;;4921284;29;20044;-90
2022/02/16 15:14:40;;;;;;;98.13;10.88;;;;;;;;;;4927556;29;20048;-87
2022/02/16 15:17:08;;;;;;;97.50;10.55;;;;;;;;;;4920852;29;20044;-86
2022/02/16 15:19:37;;;;;;;108.22;11.63;;;;;;;;;;4905956;29;20053;-87
2022/02/16 15:22:09;;;;;;;103.60;11.50;;;;;;;;;;4917723;29;20060;-88
2022/02/16 15:24:36;;;;;;;100.28;12.27;;;;;;;;;;4892457;29;20047;-86
2022/02/16 15:27:04;;;;;;;86.43;10.98;;;;;;;;;;4896342;29;20056;-87
2022/02/16 15:29:30;;;;;;;92.07;10.52;;;;;;;;;;4914551;29;20053;-87
2022/02/16 15:31:57;;;;;;;105.72;11.73;;;;;;;;;;4923053;29;20048;-87
2022/02/16 15:34:24;;;;;;;91.97;10.85;;;;;;;;;;4902544;29;21173;-86
2022/02/16 15:36:53;;;;;;;111.05;11.73;;;;;;;;;;4915826;29;20171;-86
2022/02/16 15:39:21;;;;;;;105.22;14.15;;;;;;;;;;4922903;29;20051;-86
2022/02/16 15:41:47;;;;;;;107.65;13.07;;;;;;;;;;4919374;29;20613;-86
2022/02/16 15:44:14;;;;;;;112.82;12.27;;;;;;;;;;4904323;29;20516;-86
2022/02/16 15:46:41;;;;;;;113.43;11.23;;;;;;;;;;4923878;29;20132;-86
2022/02/16 15:49:08;;;;;;;97.78;10.45;;;;;;;;;;4920173;29;20051;-88
2022/02/16 15:51:35;;;;;;;102.18;10.43;;;;;;;;;;4910156;29;20513;-88
2022/02/16 15:54:02;;;;;;;102.43;11.25;;;;;;;;;;4921703;29;20155;-86
2022/02/16 15:56:31;;;;;;;103.93;10.52;;;;;;;;;;4907875;29;20690;-88
2022/02/16 15:58:59;;;;;;;126.43;13.85;;;;;;;;;;4911954;29;20051;-88
2022/02/16 16:01:26;;;;;;;126.25;13.55;;;;;;;;;;4912349;29;20103;-87
2022/02/16 16:03:53;;;;;;;123.55;13.43;;;;;;;;;;4907208;29;20511;-89
2022/02/16 16:06:22;;;;;;;123.40;13.23;;;;;;;;;;4887329;29;20678;-88
2022/02/16 16:08:48;;;;;;;119.88;12.27;;;;;;;;;;4904615;29;20055;-87
2022/02/16 16:11:15;;;;;;;114.57;12.75;;;;;;;;;;4908762;29;20052;-90
2022/02/16 16:13:42;;;;;;;106.15;12.40;;;;;;;;;;4895393;29;20052;-92
2022/02/16 16:16:09;;;;;;;99.38;12.20;;;;;;;;;;4887319;29;20053;-87
2022/02/16 16:18:45;;;;;;;96.07;10.60;;;;;;;;;;4911930;29;20083;-90
2022/02/16 16:21:12;;;;;;;86.20;10.02;;;;;;;;;;4906831;29;20061;-91
2022/02/16 16:23:41;;;;;;;85.05;9.95;;;;;;;;;;4911057;29;20052;-91
2022/02/16 16:26:09;;;;;;;84.78;10.70;;;;;;;;;;4898936;29;20111;-90
2022/02/16 16:28:38;;;;;;;92.72;10.85;;;;;;;;;;4907295;29;20059;-89
2022/02/16 16:31:06;;;;;;;91.65;13.70;;;;;;;;;;4910142;29;20063;-93
2022/02/16 16:33:33;;;;;;;86.87;14.17;;;;;;;;;;4896515;29;20051;-87
2022/02/16 16:36:00;;;;;;;75.30;12.55;;;;;;;;;;4897929;29;20300;-89
2022/02/16 16:38:30;;;;;;;99.93;18.33;;;;;;;;;;4910392;29;20044;-89
2022/02/16 16:40:57;;;;;;;67.32;10.10;;;;;;;;;;4906452;29;20048;-91
2022/02/16 16:43:24;;;;;;;94.80;13.07;;;;;;;;;;4904585;29;20048;-89
2022/02/16 16:45:50;;;;;;;81.95;9.48;;;;;;;;;;4898346;29;20056;-88
2022/02/16 16:48:17;;;;;;;68.85;10.32;;;;;;;;;;4904548;29;20060;-88
2022/02/16 16:50:48;;;;;;;86.18;11.23;;;;;;;;;;4905783;29;20060;-86
2022/02/16 16:53:22;;;;;;;79.65;14.02;;;;;;;;;;4892706;29;20119;-88
2022/02/16 16:55:51;;;;;;;99.43;16.45;;;;;;;;;;4887952;29;20051;-87
2022/02/16 16:58:18;;;;;;;94.97;12.77;;;;;;;;;;4903494;29;20201;-89
2022/02/16 17:00:47;;;;;;;111.70;19.15;;;;;;;;;;4910851;29;20052;-89
2022/02/16 17:03:17;;;;;;;104.32;22.48;;;;;;;;;;4907119;29;20107;-90
2022/02/16 17:05:48;;;;;;;86.70;13.38;;;;;;;;;;4899229;29;20067;-89
2022/02/16 17:08:15;;;;;;;;;;;;;;;;;;4902642;29;20104;-87
2022/02/16 17:10:41;;;;;;;124.75;14.93;;;;;;;;;;4912002;29;20284;-88
2022/02/16 17:13:08;;;;;;;94.65;11.98;;;;;;;;;;4908216;29;20056;-87
2022/02/16 17:15:35;;;;;;;104.88;12.32;;;;;;;;;;4911898;29;20481;-88
2022/02/16 17:18:05;;;;;;;114.18;17.30;;;;;;;;;;4894111;29;20544;-86
2022/02/16 17:20:32;;;;;;;111.25;15.35;;;;;;;;;;4908739;29;20055;-88
2022/02/16 17:22:59;;;;;;;105.85;12.77;;;;;;;;;;4908357;29;20056;-87
2022/02/16 17:25:26;;;;;;;116.82;13.88;;;;;;;;;;4905109;29;20487;-87
2022/02/16 17:27:52;;;;;;;118.88;16.33;;;;;;;;;;4910809;29;20052;-86
2022/02/16 17:30:22;;;;;;;118.07;14.15;;;;;;;;;;4910427;29;20051;-87
2022/02/16 17:32:51;;;;;;;130.90;15.23;;;;;;;;;;4888936;29;20048;-87
2022/02/16 17:35:21;;;;;;;111.38;14.18;;;;;;;;;;4915193;29;20529;-86
2022/02/16 17:37:48;;;;;;;127.60;14.20;;;;;;;;;;4895638;29;20120;-86
2022/02/16 17:40:15;;;;;;;130.68;15.55;;;;;;;;;;4893646;29;20528;-85
2022/02/16 17:42:47;;;;;;;127.22;16.02;;;;;;;;;;4910690;29;20056;-85
2022/02/16 17:45:16;;;;;;;134.63;15.35;;;;;;;;;;4908678;29;20054;-86
2022/02/16 17:47:46;;;;;;;124.90;15.00;;;;;;;;;;4908543;29;20067;-88
2022/02/16 17:50:18;;;;;;;152.77;15.55;;;;;;;;;;4901209;29;20064;-85
2022/02/16 17:52:47;;;;;;;121.90;15.80;;;;;;;;;;4893806;29;20104;-86
2022/02/16 17:55:15;;;;;;;147.15;18.85;;;;;;;;;;4899220;29;20044;-87
2022/02/16 17:57:48;;;;;;;152.73;17.20;;;;;;;;;;4907326;29;20543;-88
2022/02/16 18:00:19;;;;;;;129.45;15.95;;;;;;;;;;4919939;29;20051;-84
2022/02/16 18:03:13;;;;;;;148.57;17.70;;;;;;;;;;4917227;29;20052;-89
2022/02/16 18:05:43;;;;;;;151.73;17.40;;;;;;;;;;4908575;29;20056;-85
2022/02/16 18:08:17;;;;;;;144.70;18.70;;;;;;;;;;4910167;29;20137;-86
2022/02/16 18:10:45;;;;;;;138.25;15.10;;;;;;;;;;4923848;29;20673;-85
2022/02/16 18:13:14;;;;;;;120.63;15.13;;;;;;;;;;4897284;29;20067;-85
2022/02/16 18:15:41;;;;;;;107.10;14.30;;;;;;;;;;4915573;29;20090;-86
2022/02/16 18:18:07;;;;;;;109.05;13.23;;;;;;;;;;4910473;29;20535;-83
2022/02/16 18:20:34;;;;;;;100.30;13.75;;;;;;;;;;4922560;29;20917;-85
2022/02/16 18:23:02;;;;;;;96.25;10.63;;;;;;;;;;4908334;29;20074;-84
2022/02/16 18:25:29;;;;;;;92.67;11.33;;;;;;;;;;4899975;29;20075;-85
2022/02/16 18:27:56;;;;;;;108.47;13.75;;;;;;;;;;4912182;29;20290;-85
2022/02/16 18:30:23;;;;;;;126.85;14.27;;;;;;;;;;4915916;29;20695;-87
2022/02/16 18:32:50;;;;;;;137.50;15.52;;;;;;;;;;4913957;29;20054;-85
2022/02/16 18:35:17;;;;;;;131.55;17.15;;;;;;;;;;4909702;29;20409;-86
2022/02/16 18:37:44;;;;;;;128.45;15.73;;;;;;;;;;4911206;29;20063;-86
2022/02/16 18:40:11;;;;;;;135.13;17.15;;;;;;;;;;4899866;29;20040;-85
2022/02/16 18:42:38;;;;;;;148.85;18.38;;;;;;;;;;4918939;29;20050;-84
2022/02/16 18:45:07;;;;;;;146.67;17.70;;;;;;;;;;4917674;29;20048;-83
2022/02/16 18:47:34;;;;;;;120.97;16.25;;;;;;;;;;4909244;29;20296;-86
2022/02/16 18:50:00;;;;;;;112.88;13.85;;;;;;;;;;4891538;29;20568;-85
2022/02/16 18:52:27;;;;;;;131.43;15.07;;;;;;;;;;4909821;29;20088;-85
2022/02/16 18:54:54;;;;;;;105.00;12.60;;;;;;;;;;4915672;29;20059;-86
2022/02/16 18:57:21;;;;;;;105.60;14.00;;;;;;;;;;4907688;29;20044;-86
2022/02/16 18:59:47;;;;;;;119.25;15.20;;;;;;;;;;4906947;29;22218;-85
2022/02/16 19:02:14;;;;;;;139.18;15.02;;;;;;;;;;4909573;29;20052;-83
2022/02/16 19:04:41;;;;;;;129.30;14.70;;;;;;;;;;4892986;29;20076;-86
2022/02/16 19:07:07;;;;;;;162.20;16.60;;;;;;;;;;4894722;29;20052;-86
2022/02/16 19:09:34;;;;;;;149.43;16.30;;;;;;;;;;4913262;29;20048;-90
2022/02/16 19:12:01;;;;;;;140.52;15.85;;;;;;;;;;4920050;29;20484;-87
2022/02/16 19:14:27;;;;;;;116.95;14.50;;;;;;;;;;4916200;29;20048;-88
2022/02/16 19:16:56;;;;;;;137.75;15.75;;;;;;;;;;4911913;29;20135;-88
2022/02/16 19:19:23;;;;;;;134.48;15.95;;;;;;;;;;4912391;29;20136;-88
2022/02/16 19:21:50;;;;;;;135.43;13.38;;;;;;;;;;4917868;29;20060;-89
2022/02/16 19:24:18;;;;;;;92.68;12.48;;;;;;;;;;4921560;29;20055;-87
2022/02/16 19:26:45;;;;;;;85.13;9.50;;;;;;;;;;4916674;29;20127;-88
2022/02/16 19:29:13;;;;;;;83.45;10.50;;;;;;;;;;4908783;29;20509;-90
2022/02/16 19:31:40;;;;;;;77.93;10.25;;;;;;;;;;4911205;29;20513;-87
2022/02/16 19:34:08;;;;;;;80.65;9.95;;;;;;;;;;4895820;29;20132;-87
2022/02/16 19:36:36;;;;;;;70.40;11.93;;;;;;;;;;4915692;29;20048;-87
2022/02/16 19:39:04;;;;;;;62.80;14.70;;;;;;;;;;4919166;29;20056;-87
2022/02/16 19:41:31;;;;;;;64.88;10.20;;;;;;;;;;4893993;29;20040;-87
2022/02/16 19:43:58;;;;;;;66.45;8.27;;;;;;;;;;4919535;29;20127;-89
2022/02/16 19:46:25;;;;;;;48.78;7.25;;;;;;;;;;4921575;29;20594;-87
2022/02/16 19:48:51;;;;;;;37.88;6.68;;;;;;;;;;4896544;29;20044;-88
2022/02/16 19:51:18;;;;;;;29.90;6.15;;;;;;;;;;4911973;29;20051;-89
2022/02/16 19:53:45;;;;;;;39.70;6.03;;;;;;;;;;4899292;29;20513;-87
2022/02/16 19:56:13;;;;;;;50.80;6.53;;;;;;;;;;4912754;29;20055;-91
2022/02/16 19:58:40;;;;;;;61.13;8.13;;;;;;;;;;4920637;29;20051;-90
2022/02/16 20:01:08;;;;;;;59.60;9.07;;;;;;;;;;4898798;29;20048;-88
2022/02/16 20:03:35;;;;;;;71.07;9.65;;;;;;;;;;4907231;29;20119;-89
2022/02/16 20:06:02;;;;;;;62.28;9.32;;;;;;;;;;4909425;29;20056;-89
2022/02/16 20:08:29;;;;;;;61.03;9.93;;;;;;;;;;4908461;29;20051;-88
2022/02/16 20:10:56;;;;;;;41.05;7.75;;;;;;;;;;4909590;29;20116;-88
2022/02/16 20:13:23;;;;;;;47.85;7.03;;;;;;;;;;4908266;29;20112;-88
2022/02/16 20:15:50;;;;;;;47.92;6.65;;;;;;;;;;4910461;29;20588;-88
2022/02/16 20:18:17;;;;;;;43.88;6.68;;;;;;;;;;4908727;29;20055;-87
2022/02/16 20:20:45;;;;;;;35.95;6.00;;;;;;;;;;4908138;29;20059;-87
2022/02/16 20:23:12;;;;;;;51.97;6.85;;;;;;;;;;4909473;29;20052;-87
2022/02/16 20:25:39;;;;;;;49.20;7.07;;;;;;;;;;4909551;29;20044;-91
2022/02/16 20:28:06;;;;;;;43.92;6.57;;;;;;;;;;4910610;29;20060;-90
2022/02/16 20:30:33;;;;;;;74.72;8.02;;;;;;;;;;4912491;29;20063;-91
2022/02/16 20:33:00;;;;;;;57.33;7.68;;;;;;;;;;4912453;29;20059;-89
2022/02/16 20:35:27;;;;;;;62.05;8.15;;;;;;;;;;4911430;29;20048;-89
2022/02/16 20:37:53;;;;;;;67.85;11.05;;;;;;;;;;4925347;29;20063;-88
2022/02/16 20:40:20;;;;;;;62.08;8.90;;;;;;;;;;4911773;29;20100;-90
2022/02/16 20:42:50;;;;;;;82.53;12.48;;;;;;;;;;4912936;29;20048;-88
2022/02/16 20:45:19;;;;;;;83.95;16.98;;;;;;;;;;4912153;29;20169;-88
2022/02/16 20:47:46;;;;;;;83.60;11.57;;;;;;;;;;4910258;29;20458;-88
2022/02/16 20:50:13;;;;;;;76.30;9.80;;;;;;;;;;4910338;29;20064;-88
2022/02/16 20:52:39;;;;;;;64.00;9.45;;;;;;;;;;4910089;29;20048;-89
2022/02/16 20:55:07;;;;;;;82.05;9.50;;;;;;;;;;4912954;29;20509;-89
2022/02/16 20:57:34;;;;;;;77.07;9.70;;;;;;;;;;4909697;29;20541;-88
2022/02/16 21:00:02;;;;;;;69.72;8.27;;;;;;;;;;4911775;29;20131;-88
2022/02/16 21:02:29;;;;;;;61.70;9.48;;;;;;;;;;4914058;29;20048;-86
2022/02/16 21:04:56;;;;;;;82.28;11.88;;;;;;;;;;4914167;29;20075;-86
2022/02/16 21:07:23;;;;;;;86.70;9.80;;;;;;;;;;4913714;29;20050;-86
2022/02/16 21:09:51;;;;;;;90.73;11.60;;;;;;;;;;4925958;29;20051;-86
2022/02/16 21:12:18;;;;;;;87.07;10.52;;;;;;;;;;4923459;29;20048;-87
2022/02/16 21:14:45;;;;;;;87.32;11.88;;;;;;;;;;4929495;29;20158;-87
2022/02/16 21:17:12;;;;;;;86.70;10.32;;;;;;;;;;4928993;29;20055;-87
2022/02/16 21:19:49;;;;;;;94.20;10.57;;;;;;;;;;4928971;29;20505;-87
2022/02/16 21:22:17;;;;;;;98.93;11.50;;;;;;;;;;4930116;29;20516;-86
2022/02/16 21:24:44;;;;;;;107.47;12.30;;;;;;;;;;4913677;29;20054;-87
2022/02/16 21:27:17;;;;;;;89.40;11.43;;;;;;;;;;4929816;29;20119;-87
2022/02/16 21:29:46;;;;;;;95.78;11.73;;;;;;;;;;4930662;29;20047;-87
2022/02/16 21:32:13;;;;;;;72.73;9.83;;;;;;;;;;4929968;29;20062;-87
2022/02/16 21:34:40;;;;;;;67.10;8.95;;;;;;;;;;4911665;29;20374;-88